Hauptseite
METAR-TAF:

METAR-TAF

Flughäfen :

Flughafen Aniak

Aniak, Alaska, Vereinigte Staaten

Breite: 61-34-53N, Länge: 159-32-34W, Höhe: 27 m

Beobachtung

Neuester Wetterbericht von vor 21 Minuten, um 06:56 UTC
Wind 7 kt aus Nord
Temperatur -17°C
Luftfeuchtigkeit 65%
Luftdruck 1018 hPa
Sichtweite: 16.1 km
Himmel klar

METAR: PANI 280656Z AUTO 35007KT 10SM CLR M17/M22 A3007 RMK AO2 SLP176 T11721222 FZRANO $

Zeit: 22:17 (07:17 UTC)


TAF: fehlend

Wetterbeobachtungen und Prognosen von mehr als 4000 Flughäfen (METAR und TAF Bericht).

Die verfügbaren Stationen werden durch gelbe und rote Markierungen auf der Karte dargestellt.

Führen Sie die Maus auf sie, um den Namen der Station zu sehen.

Darauf klicken, um die Beobachtung von Wetterbeobachtungen und Prognosen zu sehen.

Um die Karte zu ändern : klicken Sie auf den grünen Tasten mit einem schwarzen Kreuz Zum Vergrößern, auf den grünen Button mit einem Gedankenstrich zu verkleinern, oder auf die grünen Pfeile für benachbarte Karten.


METAR-TAF: